sensor_id;sensor_type;location;lat;lon;timestamp;temperature;humidity
37222;DHT22;23119;51.842;-2.230;2022-10-31T00:01:37;13.60;99.90
37222;DHT22;23119;51.842;-2.230;2022-10-31T00:04:07;13.60;99.90
37222;DHT22;23119;51.842;-2.230;2022-10-31T00:06:32;13.60;99.90
37222;DHT22;23119;51.842;-2.230;2022-10-31T00:09:03;13.60;99.90
37222;DHT22;23119;51.842;-2.230;2022-10-31T00:11:31;13.60;99.90
37222;DHT22;23119;51.842;-2.230;2022-10-31T00:14:03;13.60;99.90
37222;DHT22;23119;51.842;-2.230;2022-10-31T00:16:29;13.60;99.90
37222;DHT22;23119;51.842;-2.230;2022-10-31T00:18:57;13.60;99.90
37222;DHT22;23119;51.842;-2.230;2022-10-31T00:21:24;13.60;99.90
37222;DHT22;23119;51.842;-2.230;2022-10-31T00:23:50;13.60;99.90
37222;DHT22;23119;51.842;-2.230;2022-10-31T00:26:16;13.60;99.90
37222;DHT22;23119;51.842;-2.230;2022-10-31T00:28:42;13.60;99.90
37222;DHT22;23119;51.842;-2.230;2022-10-31T00:31:12;13.60;99.90
37222;DHT22;23119;51.842;-2.230;2022-10-31T00:33:38;13.60;99.90
37222;DHT22;23119;51.842;-2.230;2022-10-31T00:36:10;13.60;99.90
37222;DHT22;23119;51.842;-2.230;2022-10-31T00:38:41;13.60;99.90
37222;DHT22;23119;51.842;-2.230;2022-10-31T00:41:08;13.60;99.90
37222;DHT22;23119;51.842;-2.230;2022-10-31T00:43:36;13.60;99.90
37222;DHT22;23119;51.842;-2.230;2022-10-31T00:46:01;13.60;99.90
37222;DHT22;23119;51.842;-2.230;2022-10-31T00:48:29;13.60;99.90
37222;DHT22;23119;51.842;-2.230;2022-10-31T00:50:56;13.60;99.90
37222;DHT22;23119;51.842;-2.230;2022-10-31T00:53:24;13.60;99.90
37222;DHT22;23119;51.842;-2.230;2022-10-31T00:55:53;13.60;99.90
37222;DHT22;23119;51.842;-2.230;2022-10-31T00:58:18;13.70;99.90
37222;DHT22;23119;51.842;-2.230;2022-10-31T01:00:50;13.70;99.90
37222;DHT22;23119;51.842;-2.230;2022-10-31T01:03:21;13.70;99.90
37222;DHT22;23119;51.842;-2.230;2022-10-31T01:05:56;13.70;99.90
37222;DHT22;23119;51.842;-2.230;2022-10-31T01:08:22;13.70;99.90
37222;DHT22;23119;51.842;-2.230;2022-10-31T01:11:06;13.70;99.90
37222;DHT22;23119;51.842;-2.230;2022-10-31T01:13:35;13.70;99.90
37222;DHT22;23119;51.842;-2.230;2022-10-31T01:16:02;13.70;99.90
37222;DHT22;23119;51.842;-2.230;2022-10-31T01:18:28;13.70;99.90
37222;DHT22;23119;51.842;-2.230;2022-10-31T01:21:21;13.70;99.90
37222;DHT22;23119;51.842;-2.230;2022-10-31T01:23:45;13.70;99.90
37222;DHT22;23119;51.842;-2.230;2022-10-31T01:26:15;13.70;99.90
37222;DHT22;23119;51.842;-2.230;2022-10-31T01:28:51;13.70;99.90
37222;DHT22;23119;51.842;-2.230;2022-10-31T01:31:22;13.70;99.90
37222;DHT22;23119;51.842;-2.230;2022-10-31T01:33:53;13.70;99.90
37222;DHT22;23119;51.842;-2.230;2022-10-31T01:36:27;13.70;99.90
37222;DHT22;23119;51.842;-2.230;2022-10-31T01:39:23;13.60;99.90
37222;DHT22;23119;51.842;-2.230;2022-10-31T01:41:53;13.60;99.90
37222;DHT22;23119;51.842;-2.230;2022-10-31T01:47:01;13.50;99.90
37222;DHT22;23119;51.842;-2.230;2022-10-31T01:49:47;13.50;99.90
37222;DHT22;23119;51.842;-2.230;2022-10-31T01:52:30;13.50;99.90
37222;DHT22;23119;51.842;-2.230;2022-10-31T01:57:47;13.50;99.90
37222;DHT22;23119;51.842;-2.230;2022-10-31T02:00:16;13.50;99.90
37222;DHT22;23119;51.842;-2.230;2022-10-31T02:02:45;13.40;99.90
37222;DHT22;23119;51.842;-2.230;2022-10-31T02:05:16;13.40;99.90
37222;DHT22;23119;51.842;-2.230;2022-10-31T02:07:55;13.40;99.90
37222;DHT22;23119;51.842;-2.230;2022-10-31T02:10:23;13.40;99.90
37222;DHT22;23119;51.842;-2.230;2022-10-31T02:12:51;13.40;99.90
37222;DHT22;23119;51.842;-2.230;2022-10-31T02:15:19;13.30;99.90
37222;DHT22;23119;51.842;-2.230;2022-10-31T02:17:45;13.30;99.90
37222;DHT22;23119;51.842;-2.230;2022-10-31T02:20:18;13.40;99.90
37222;DHT22;23119;51.842;-2.230;2022-10-31T02:28:39;13.40;99.90
37222;DHT22;23119;51.842;-2.230;2022-10-31T02:33:48;13.40;99.90
37222;DHT22;23119;51.842;-2.230;2022-10-31T02:36:26;13.40;99.90
37222;DHT22;23119;51.842;-2.230;2022-10-31T02:41:48;13.40;99.90
37222;DHT22;23119;51.842;-2.230;2022-10-31T02:44:49;13.40;99.90
37222;DHT22;23119;51.842;-2.230;2022-10-31T02:47:18;13.30;99.90
37222;DHT22;23119;51.842;-2.230;2022-10-31T02:52:31;13.40;99.90
37222;DHT22;23119;51.842;-2.230;2022-10-31T02:54:57;13.40;99.90
37222;DHT22;23119;51.842;-2.230;2022-10-31T02:57:33;13.40;99.90
37222;DHT22;23119;51.842;-2.230;2022-10-31T03:00:04;13.40;99.90
37222;DHT22;23119;51.842;-2.230;2022-10-31T03:11:08;13.40;99.90
37222;DHT22;23119;51.842;-2.230;2022-10-31T03:13:41;13.40;99.90
37222;DHT22;23119;51.842;-2.230;2022-10-31T03:19:00;13.40;99.90
37222;DHT22;23119;51.842;-2.230;2022-10-31T03:21:37;13.40;99.90
37222;DHT22;23119;51.842;-2.230;2022-10-31T03:24:06;13.40;99.90
37222;DHT22;23119;51.842;-2.230;2022-10-31T03:26:36;13.40;99.90
37222;DHT22;23119;51.842;-2.230;2022-10-31T03:29:08;13.40;99.90
37222;DHT22;23119;51.842;-2.230;2022-10-31T03:31:57;13.40;99.90
37222;DHT22;23119;51.842;-2.230;2022-10-31T03:34:32;13.40;99.90
37222;DHT22;23119;51.842;-2.230;2022-10-31T03:37:01;13.30;99.90
37222;DHT22;23119;51.842;-2.230;2022-10-31T03:39:49;13.30;99.90
37222;DHT22;23119;51.842;-2.230;2022-10-31T03:42:30;13.30;99.90
37222;DHT22;23119;51.842;-2.230;2022-10-31T03:45:00;13.30;99.90
37222;DHT22;23119;51.842;-2.230;2022-10-31T03:47:33;13.30;99.90
37222;DHT22;23119;51.842;-2.230;2022-10-31T03:49:59;13.30;99.90
37222;DHT22;23119;51.842;-2.230;2022-10-31T03:55:02;13.30;99.90
37222;DHT22;23119;51.842;-2.230;2022-10-31T03:57:51;13.40;99.90
37222;DHT22;23119;51.842;-2.230;2022-10-31T04:00:26;13.30;99.90
37222;DHT22;23119;51.842;-2.230;2022-10-31T04:03:28;13.30;99.90
37222;DHT22;23119;51.842;-2.230;2022-10-31T04:05:59;13.30;99.90
37222;DHT22;23119;51.842;-2.230;2022-10-31T04:08:32;13.30;99.90
37222;DHT22;23119;51.842;-2.230;2022-10-31T04:11:00;13.30;99.90
37222;DHT22;23119;51.842;-2.230;2022-10-31T04:13:31;13.30;99.90
37222;DHT22;23119;51.842;-2.230;2022-10-31T04:15:58;13.30;99.90
37222;DHT22;23119;51.842;-2.230;2022-10-31T04:18:26;13.30;99.90
37222;DHT22;23119;51.842;-2.230;2022-10-31T04:21:06;13.30;99.90
37222;DHT22;23119;51.842;-2.230;2022-10-31T04:23:35;13.30;99.90
37222;DHT22;23119;51.842;-2.230;2022-10-31T04:26:04;13.30;99.90
37222;DHT22;23119;51.842;-2.230;2022-10-31T04:28:32;13.20;99.90
37222;DHT22;23119;51.842;-2.230;2022-10-31T04:30:59;12.50;99.90
37222;DHT22;23119;51.842;-2.230;2022-10-31T04:33:25;13.20;99.90
37222;DHT22;23119;51.842;-2.230;2022-10-31T04:35:50;13.20;99.90
37222;DHT22;23119;51.842;-2.230;2022-10-31T04:38:16;13.20;99.90
37222;DHT22;23119;51.842;-2.230;2022-10-31T04:40:45;13.20;99.90
37222;DHT22;23119;51.842;-2.230;2022-10-31T04:43:11;13.20;99.90
37222;DHT22;23119;51.842;-2.230;2022-10-31T04:45:39;13.20;99.90
37222;DHT22;23119;51.842;-2.230;2022-10-31T04:48:05;13.20;99.90
37222;DHT22;23119;51.842;-2.230;2022-10-31T04:50:30;13.20;99.90
37222;DHT22;23119;51.842;-2.230;2022-10-31T04:52:56;13.30;99.90
37222;DHT22;23119;51.842;-2.230;2022-10-31T04:55:24;13.20;99.90
37222;DHT22;23119;51.842;-2.230;2022-10-31T04:57:52;13.30;99.90
37222;DHT22;23119;51.842;-2.230;2022-10-31T05:00:19;13.20;99.90
37222;DHT22;23119;51.842;-2.230;2022-10-31T05:02:50;13.20;99.90
37222;DHT22;23119;51.842;-2.230;2022-10-31T05:05:17;13.30;99.90
37222;DHT22;23119;51.842;-2.230;2022-10-31T05:07:47;13.50;99.90
37222;DHT22;23119;51.842;-2.230;2022-10-31T05:10:15;13.30;99.90
37222;DHT22;23119;51.842;-2.230;2022-10-31T05:12:51;13.30;99.90
37222;DHT22;23119;51.842;-2.230;2022-10-31T05:15:19;13.30;99.90
37222;DHT22;23119;51.842;-2.230;2022-10-31T05:17:45;13.30;99.90
37222;DHT22;23119;51.842;-2.230;2022-10-31T05:20:14;13.30;99.90
37222;DHT22;23119;51.842;-2.230;2022-10-31T05:22:44;13.30;99.90
37222;DHT22;23119;51.842;-2.230;2022-10-31T05:25:13;13.30;99.90
37222;DHT22;23119;51.842;-2.230;2022-10-31T05:27:43;13.30;99.90
37222;DHT22;23119;51.842;-2.230;2022-10-31T05:30:11;13.30;99.90
37222;DHT22;23119;51.842;-2.230;2022-10-31T05:32:45;13.30;99.90
37222;DHT22;23119;51.842;-2.230;2022-10-31T05:35:16;13.60;99.90
37222;DHT22;23119;51.842;-2.230;2022-10-31T05:37:44;13.20;99.90
37222;DHT22;23119;51.842;-2.230;2022-10-31T05:40:11;13.20;99.90
37222;DHT22;23119;51.842;-2.230;2022-10-31T05:42:43;13.20;99.90
37222;DHT22;23119;51.842;-2.230;2022-10-31T05:45:11;13.20;99.90
37222;DHT22;23119;51.842;-2.230;2022-10-31T05:47:40;13.10;99.90
37222;DHT22;23119;51.842;-2.230;2022-10-31T05:50:06;13.10;99.90
37222;DHT22;23119;51.842;-2.230;2022-10-31T05:52:33;13.10;99.90
37222;DHT22;23119;51.842;-2.230;2022-10-31T05:55:01;13.10;99.90
37222;DHT22;23119;51.842;-2.230;2022-10-31T05:57:31;13.10;99.90
37222;DHT22;23119;51.842;-2.230;2022-10-31T06:00:00;13.10;99.90
37222;DHT22;23119;51.842;-2.230;2022-10-31T06:02:28;13.20;99.90
37222;DHT22;23119;51.842;-2.230;2022-10-31T06:04:57;13.20;99.90
37222;DHT22;23119;51.842;-2.230;2022-10-31T06:07:23;13.10;99.90
37222;DHT22;23119;51.842;-2.230;2022-10-31T06:09:51;13.10;99.90
37222;DHT22;23119;51.842;-2.230;2022-10-31T06:12:17;13.10;99.90
37222;DHT22;23119;51.842;-2.230;2022-10-31T06:14:45;13.10;99.90
37222;DHT22;23119;51.842;-2.230;2022-10-31T06:17:10;13.10;99.90
37222;DHT22;23119;51.842;-2.230;2022-10-31T06:19:36;13.10;99.90
37222;DHT22;23119;51.842;-2.230;2022-10-31T06:22:05;13.10;99.90
37222;DHT22;23119;51.842;-2.230;2022-10-31T06:24:33;13.20;99.90
37222;DHT22;23119;51.842;-2.230;2022-10-31T06:26:59;13.20;99.90
37222;DHT22;23119;51.842;-2.230;2022-10-31T06:29:25;13.20;99.90
37222;DHT22;23119;51.842;-2.230;2022-10-31T06:31:53;13.20;99.90
37222;DHT22;23119;51.842;-2.230;2022-10-31T06:34:19;13.20;99.90
37222;DHT22;23119;51.842;-2.230;2022-10-31T06:36:46;13.20;99.90
37222;DHT22;23119;51.842;-2.230;2022-10-31T06:39:12;13.20;99.90
37222;DHT22;23119;51.842;-2.230;2022-10-31T06:41:37;13.20;99.90
37222;DHT22;23119;51.842;-2.230;2022-10-31T06:44:08;13.20;99.90
37222;DHT22;23119;51.842;-2.230;2022-10-31T06:46:33;13.20;99.90
37222;DHT22;23119;51.842;-2.230;2022-10-31T06:49:02;13.20;99.90
37222;DHT22;23119;51.842;-2.230;2022-10-31T06:51:32;13.20;99.90
37222;DHT22;23119;51.842;-2.230;2022-10-31T06:54:01;13.30;99.90
37222;DHT22;23119;51.842;-2.230;2022-10-31T06:56:29;13.30;99.90
37222;DHT22;23119;51.842;-2.230;2022-10-31T06:58:57;13.30;99.90
37222;DHT22;23119;51.842;-2.230;2022-10-31T07:01:23;13.40;99.90
37222;DHT22;23119;51.842;-2.230;2022-10-31T07:03:49;13.30;99.90
37222;DHT22;23119;51.842;-2.230;2022-10-31T07:06:14;13.50;99.90
37222;DHT22;23119;51.842;-2.230;2022-10-31T07:08:42;13.50;99.90
37222;DHT22;23119;51.842;-2.230;2022-10-31T07:11:10;13.50;99.90
37222;DHT22;23119;51.842;-2.230;2022-10-31T07:13:36;13.50;99.90
37222;DHT22;23119;51.842;-2.230;2022-10-31T07:16:05;13.50;99.90
37222;DHT22;23119;51.842;-2.230;2022-10-31T07:18:32;13.60;99.90
37222;DHT22;23119;51.842;-2.230;2022-10-31T07:20:58;13.70;99.90
37222;DHT22;23119;51.842;-2.230;2022-10-31T07:23:27;13.70;99.90
37222;DHT22;23119;51.842;-2.230;2022-10-31T07:25:59;13.80;99.90
37222;DHT22;23119;51.842;-2.230;2022-10-31T07:28:26;13.80;99.90
37222;DHT22;23119;51.842;-2.230;2022-10-31T07:30:56;13.90;99.90
37222;DHT22;23119;51.842;-2.230;2022-10-31T07:33:23;14.00;99.90
37222;DHT22;23119;51.842;-2.230;2022-10-31T07:35:49;14.10;99.90
37222;DHT22;23119;51.842;-2.230;2022-10-31T07:38:15;14.10;99.90
37222;DHT22;23119;51.842;-2.230;2022-10-31T07:40:42;14.10;99.90
37222;DHT22;23119;51.842;-2.230;2022-10-31T07:43:08;14.20;99.90
37222;DHT22;23119;51.842;-2.230;2022-10-31T07:45:35;14.20;99.90
37222;DHT22;23119;51.842;-2.230;2022-10-31T07:48:03;14.30;99.90
37222;DHT22;23119;51.842;-2.230;2022-10-31T07:50:31;14.30;99.90
37222;DHT22;23119;51.842;-2.230;2022-10-31T07:53:05;14.40;99.90
37222;DHT22;23119;51.842;-2.230;2022-10-31T07:55:39;14.40;99.90
37222;DHT22;23119;51.842;-2.230;2022-10-31T07:58:09;14.30;99.90
37222;DHT22;23119;51.842;-2.230;2022-10-31T08:00:36;14.40;99.90
37222;DHT22;23119;51.842;-2.230;2022-10-31T08:03:11;14.60;99.90
37222;DHT22;23119;51.842;-2.230;2022-10-31T08:05:40;14.80;99.90
37222;DHT22;23119;51.842;-2.230;2022-10-31T08:08:12;14.90;99.90
37222;DHT22;23119;51.842;-2.230;2022-10-31T08:10:40;15.60;99.90
37222;DHT22;23119;51.842;-2.230;2022-10-31T08:13:09;16.00;99.90
37222;DHT22;23119;51.842;-2.230;2022-10-31T08:15:37;16.50;99.90
37222;DHT22;23119;51.842;-2.230;2022-10-31T08:18:16;16.60;99.90
37222;DHT22;23119;51.842;-2.230;2022-10-31T08:20:43;16.60;99.90
37222;DHT22;23119;51.842;-2.230;2022-10-31T08:23:10;16.70;99.90
37222;DHT22;23119;51.842;-2.230;2022-10-31T08:25:36;17.00;99.90
37222;DHT22;23119;51.842;-2.230;2022-10-31T08:28:03;16.90;99.90
37222;DHT22;23119;51.842;-2.230;2022-10-31T08:30:34;16.80;99.90
37222;DHT22;23119;51.842;-2.230;2022-10-31T08:35:37;16.60;99.90
37222;DHT22;23119;51.842;-2.230;2022-10-31T08:38:05;16.50;99.90
37222;DHT22;23119;51.842;-2.230;2022-10-31T08:40:37;16.60;99.90
37222;DHT22;23119;51.842;-2.230;2022-10-31T08:43:10;16.80;99.90
37222;DHT22;23119;51.842;-2.230;2022-10-31T08:45:39;17.20;99.90
37222;DHT22;23119;51.842;-2.230;2022-10-31T08:48:06;17.90;99.90
37222;DHT22;23119;51.842;-2.230;2022-10-31T08:50:35;18.60;99.90
37222;DHT22;23119;51.842;-2.230;2022-10-31T08:53:09;18.80;99.90
37222;DHT22;23119;51.842;-2.230;2022-10-31T08:55:37;19.00;99.90
37222;DHT22;23119;51.842;-2.230;2022-10-31T08:58:05;18.90;99.90
37222;DHT22;23119;51.842;-2.230;2022-10-31T09:00:36;19.00;99.90
37222;DHT22;23119;51.842;-2.230;2022-10-31T09:03:05;19.20;99.90
37222;DHT22;23119;51.842;-2.230;2022-10-31T09:05:36;19.40;99.90
37222;DHT22;23119;51.842;-2.230;2022-10-31T09:08:07;19.90;99.90
37222;DHT22;23119;51.842;-2.230;2022-10-31T09:10:36;20.70;99.90
37222;DHT22;23119;51.842;-2.230;2022-10-31T09:13:11;20.90;99.90
37222;DHT22;23119;51.842;-2.230;2022-10-31T09:15:41;21.10;99.90
37222;DHT22;23119;51.842;-2.230;2022-10-31T09:18:08;21.30;99.90
37222;DHT22;23119;51.842;-2.230;2022-10-31T09:20:35;21.70;99.90
37222;DHT22;23119;51.842;-2.230;2022-10-31T09:23:04;22.80;99.90
37222;DHT22;23119;51.842;-2.230;2022-10-31T09:25:35;23.80;99.90
37222;DHT22;23119;51.842;-2.230;2022-10-31T09:28:10;24.70;99.40
37222;DHT22;23119;51.842;-2.230;2022-10-31T09:30:39;25.40;99.90
37222;DHT22;23119;51.842;-2.230;2022-10-31T09:33:12;26.30;99.50
37222;DHT22;23119;51.842;-2.230;2022-10-31T09:36:00;26.90;96.90
37222;DHT22;23119;51.842;-2.230;2022-10-31T09:38:30;27.20;96.60
37222;DHT22;23119;51.842;-2.230;2022-10-31T09:41:23;27.30;96.60
37222;DHT22;23119;51.842;-2.230;2022-10-31T09:47:10;26.10;95.50
37222;DHT22;23119;51.842;-2.230;2022-10-31T09:52:40;24.60;96.40
37222;DHT22;23119;51.842;-2.230;2022-10-31T09:55:12;23.60;98.20
37222;DHT22;23119;51.842;-2.230;2022-10-31T09:57:42;23.20;98.80
37222;DHT22;23119;51.842;-2.230;2022-10-31T10:00:19;22.70;99.40
37222;DHT22;23119;51.842;-2.230;2022-10-31T10:08:16;21.70;99.90
37222;DHT22;23119;51.842;-2.230;2022-10-31T10:16:14;21.40;99.90
37222;DHT22;23119;51.842;-2.230;2022-10-31T10:24:03;20.80;99.90
37222;DHT22;23119;51.842;-2.230;2022-10-31T10:26:46;20.70;99.90
37222;DHT22;23119;51.842;-2.230;2022-10-31T10:29:32;20.70;99.90
37222;DHT22;23119;51.842;-2.230;2022-10-31T10:32:01;20.50;99.90
37222;DHT22;23119;51.842;-2.230;2022-10-31T10:34:36;20.20;99.90
37222;DHT22;23119;51.842;-2.230;2022-10-31T10:37:37;20.00;99.90
37222;DHT22;23119;51.842;-2.230;2022-10-31T10:40:23;19.80;99.90
37222;DHT22;23119;51.842;-2.230;2022-10-31T10:43:18;19.60;99.90
37222;DHT22;23119;51.842;-2.230;2022-10-31T10:57:56;19.00;99.90
37222;DHT22;23119;51.842;-2.230;2022-10-31T11:00:26;19.00;99.90
37222;DHT22;23119;51.842;-2.230;2022-10-31T11:02:55;18.80;99.90
37222;DHT22;23119;51.842;-2.230;2022-10-31T11:05:55;18.70;99.90
37222;DHT22;23119;51.842;-2.230;2022-10-31T11:08:29;18.50;99.90
37222;DHT22;23119;51.842;-2.230;2022-10-31T11:11:04;18.60;99.90
37222;DHT22;23119;51.842;-2.230;2022-10-31T11:13:37;18.50;99.90
37222;DHT22;23119;51.842;-2.230;2022-10-31T11:16:11;18.60;99.90
37222;DHT22;23119;51.842;-2.230;2022-10-31T11:18:40;18.60;99.90
37222;DHT22;23119;51.842;-2.230;2022-10-31T11:21:28;18.40;99.90
37222;DHT22;23119;51.842;-2.230;2022-10-31T11:24:36;18.40;99.90
37222;DHT22;23119;51.842;-2.230;2022-10-31T11:27:13;18.40;99.90
37222;DHT22;23119;51.842;-2.230;2022-10-31T11:29:39;18.30;99.90
37222;DHT22;23119;51.842;-2.230;2022-10-31T11:32:08;18.20;99.90
37222;DHT22;23119;51.842;-2.230;2022-10-31T11:34:45;18.30;99.90
37222;DHT22;23119;51.842;-2.230;2022-10-31T11:37:35;18.40;99.90
37222;DHT22;23119;51.842;-2.230;2022-10-31T11:40:06;18.40;99.90
37222;DHT22;23119;51.842;-2.230;2022-10-31T11:42:43;18.40;99.90
37222;DHT22;23119;51.842;-2.230;2022-10-31T11:45:32;18.50;99.90
37222;DHT22;23119;51.842;-2.230;2022-10-31T11:48:12;18.60;99.90
37222;DHT22;23119;51.842;-2.230;2022-10-31T11:50:42;18.60;99.90
37222;DHT22;23119;51.842;-2.230;2022-10-31T11:53:38;18.50;99.90
37222;DHT22;23119;51.842;-2.230;2022-10-31T11:56:15;18.50;99.90
37222;DHT22;23119;51.842;-2.230;2022-10-31T11:58:54;18.50;99.90
37222;DHT22;23119;51.842;-2.230;2022-10-31T12:01:30;18.50;99.90
37222;DHT22;23119;51.842;-2.230;2022-10-31T12:04:10;18.50;99.90
37222;DHT22;23119;51.842;-2.230;2022-10-31T12:06:45;18.30;99.90
37222;DHT22;23119;51.842;-2.230;2022-10-31T12:09:24;18.30;99.90
37222;DHT22;23119;51.842;-2.230;2022-10-31T12:12:51;18.30;99.90
37222;DHT22;23119;51.842;-2.230;2022-10-31T12:26:18;17.90;99.90
37222;DHT22;23119;51.842;-2.230;2022-10-31T12:29:00;17.90;99.90
37222;DHT22;23119;51.842;-2.230;2022-10-31T12:42:59;17.70;99.90
37222;DHT22;23119;51.842;-2.230;2022-10-31T12:45:59;17.70;99.90
37222;DHT22;23119;51.842;-2.230;2022-10-31T13:01:58;17.90;99.90
37222;DHT22;23119;51.842;-2.230;2022-10-31T13:07:10;18.00;99.90
37222;DHT22;23119;51.842;-2.230;2022-10-31T13:09:46;18.10;99.90
37222;DHT22;23119;51.842;-2.230;2022-10-31T13:12:17;18.10;99.90
37222;DHT22;23119;51.842;-2.230;2022-10-31T13:14:54;18.10;99.90
37222;DHT22;23119;51.842;-2.230;2022-10-31T13:20:32;18.10;99.90
37222;DHT22;23119;51.842;-2.230;2022-10-31T13:25:42;18.00;99.90
37222;DHT22;23119;51.842;-2.230;2022-10-31T13:30:57;17.90;99.90
37222;DHT22;23119;51.842;-2.230;2022-10-31T13:33:37;17.80;99.90
37222;DHT22;23119;51.842;-2.230;2022-10-31T13:44:20;17.70;99.90
37222;DHT22;23119;51.842;-2.230;2022-10-31T13:46:47;17.80;99.90
37222;DHT22;23119;51.842;-2.230;2022-10-31T13:51:50;17.80;99.90
37222;DHT22;23119;51.842;-2.230;2022-10-31T13:54:32;17.70;99.90
37222;DHT22;23119;51.842;-2.230;2022-10-31T13:57:00;17.70;99.90
37222;DHT22;23119;51.842;-2.230;2022-10-31T13:59:35;17.60;99.90
37222;DHT22;23119;51.842;-2.230;2022-10-31T14:02:14;17.50;99.90
37222;DHT22;23119;51.842;-2.230;2022-10-31T14:04:52;17.50;99.90
37222;DHT22;23119;51.842;-2.230;2022-10-31T14:07:29;17.20;99.90
37222;DHT22;23119;51.842;-2.230;2022-10-31T14:10:02;17.20;99.90
37222;DHT22;23119;51.842;-2.230;2022-10-31T14:12:38;17.20;99.90
37222;DHT22;23119;51.842;-2.230;2022-10-31T14:15:20;17.20;99.90
37222;DHT22;23119;51.842;-2.230;2022-10-31T14:18:00;17.10;99.90
37222;DHT22;23119;51.842;-2.230;2022-10-31T14:20:47;17.10;99.90
37222;DHT22;23119;51.842;-2.230;2022-10-31T14:26:17;17.10;99.90
37222;DHT22;23119;51.842;-2.230;2022-10-31T14:28:47;17.00;99.90
37222;DHT22;23119;51.842;-2.230;2022-10-31T14:31:35;16.90;99.90
37222;DHT22;23119;51.842;-2.230;2022-10-31T14:34:20;16.80;99.90
37222;DHT22;23119;51.842;-2.230;2022-10-31T14:39:41;16.70;99.90
37222;DHT22;23119;51.842;-2.230;2022-10-31T14:48:10;16.60;99.90
37222;DHT22;23119;51.842;-2.230;2022-10-31T14:53:26;16.50;99.90
37222;DHT22;23119;51.842;-2.230;2022-10-31T14:55:56;16.50;99.90
37222;DHT22;23119;51.842;-2.230;2022-10-31T14:58:39;16.40;99.90
37222;DHT22;23119;51.842;-2.230;2022-10-31T15:01:28;16.40;99.90
37222;DHT22;23119;51.842;-2.230;2022-10-31T15:04:07;16.40;99.90
37222;DHT22;23119;51.842;-2.230;2022-10-31T15:06:51;16.30;99.90
37222;DHT22;23119;51.842;-2.230;2022-10-31T15:09:34;16.40;99.90
37222;DHT22;23119;51.842;-2.230;2022-10-31T15:12:22;16.30;99.90
37222;DHT22;23119;51.842;-2.230;2022-10-31T15:14:50;16.30;99.90
37222;DHT22;23119;51.842;-2.230;2022-10-31T15:17:24;16.30;99.90
37222;DHT22;23119;51.842;-2.230;2022-10-31T15:19:51;16.30;99.90
37222;DHT22;23119;51.842;-2.230;2022-10-31T15:22:22;16.30;99.90
37222;DHT22;23119;51.842;-2.230;2022-10-31T15:24:49;16.30;99.90
37222;DHT22;23119;51.842;-2.230;2022-10-31T15:27:24;16.20;99.90
37222;DHT22;23119;51.842;-2.230;2022-10-31T15:29:54;16.20;99.90
37222;DHT22;23119;51.842;-2.230;2022-10-31T15:32:25;16.10;99.90
37222;DHT22;23119;51.842;-2.230;2022-10-31T15:34:53;16.10;99.90
37222;DHT22;23119;51.842;-2.230;2022-10-31T15:37:26;16.10;99.90
37222;DHT22;23119;51.842;-2.230;2022-10-31T15:39:55;16.10;99.90
37222;DHT22;23119;51.842;-2.230;2022-10-31T15:42:27;16.00;99.90
37222;DHT22;23119;51.842;-2.230;2022-10-31T15:45:04;16.00;99.90
37222;DHT22;23119;51.842;-2.230;2022-10-31T15:47:31;16.00;99.90
37222;DHT22;23119;51.842;-2.230;2022-10-31T15:50:05;15.90;99.90
37222;DHT22;23119;51.842;-2.230;2022-10-31T15:52:47;15.90;99.90
37222;DHT22;23119;51.842;-2.230;2022-10-31T15:55:24;15.80;99.90
37222;DHT22;23119;51.842;-2.230;2022-10-31T15:58:11;15.70;99.90
37222;DHT22;23119;51.842;-2.230;2022-10-31T16:00:43;15.70;99.90
37222;DHT22;23119;51.842;-2.230;2022-10-31T16:05:44;15.50;99.90
37222;DHT22;23119;51.842;-2.230;2022-10-31T16:08:32;15.40;99.90
37222;DHT22;23119;51.842;-2.230;2022-10-31T16:11:24;15.20;99.90
37222;DHT22;23119;51.842;-2.230;2022-10-31T16:14:04;15.20;99.90
37222;DHT22;23119;51.842;-2.230;2022-10-31T16:16:39;15.20;99.90
37222;DHT22;23119;51.842;-2.230;2022-10-31T16:19:21;15.10;99.90
37222;DHT22;23119;51.842;-2.230;2022-10-31T16:21:54;15.00;99.90
37222;DHT22;23119;51.842;-2.230;2022-10-31T16:24:27;15.00;99.90
37222;DHT22;23119;51.842;-2.230;2022-10-31T16:27:03;14.90;99.90
37222;DHT22;23119;51.842;-2.230;2022-10-31T16:29:49;14.90;99.90
37222;DHT22;23119;51.842;-2.230;2022-10-31T16:32:31;14.90;99.90
37222;DHT22;23119;51.842;-2.230;2022-10-31T16:37:42;14.80;99.90
37222;DHT22;23119;51.842;-2.230;2022-10-31T16:40:11;14.90;99.90
37222;DHT22;23119;51.842;-2.230;2022-10-31T16:42:43;14.80;99.90
37222;DHT22;23119;51.842;-2.230;2022-10-31T16:45:35;14.80;99.90
37222;DHT22;23119;51.842;-2.230;2022-10-31T16:48:09;14.80;99.90
37222;DHT22;23119;51.842;-2.230;2022-10-31T16:50:37;14.80;99.90
37222;DHT22;23119;51.842;-2.230;2022-10-31T16:53:06;14.70;99.90
37222;DHT22;23119;51.842;-2.230;2022-10-31T16:55:32;14.70;99.90
37222;DHT22;23119;51.842;-2.230;2022-10-31T16:58:01;14.70;99.90
37222;DHT22;23119;51.842;-2.230;2022-10-31T17:00:27;14.70;99.90
37222;DHT22;23119;51.842;-2.230;2022-10-31T17:02:55;14.70;99.90
37222;DHT22;23119;51.842;-2.230;2022-10-31T17:05:24;14.70;99.90
37222;DHT22;23119;51.842;-2.230;2022-10-31T17:07:58;14.70;99.90
37222;DHT22;23119;51.842;-2.230;2022-10-31T17:10:26;14.60;99.90
37222;DHT22;23119;51.842;-2.230;2022-10-31T17:12:55;14.60;99.90
37222;DHT22;23119;51.842;-2.230;2022-10-31T17:15:29;14.60;99.90
37222;DHT22;23119;51.842;-2.230;2022-10-31T17:17:56;14.60;99.90
37222;DHT22;23119;51.842;-2.230;2022-10-31T17:20:26;14.50;99.90
37222;DHT22;23119;51.842;-2.230;2022-10-31T17:22:52;14.60;99.90
37222;DHT22;23119;51.842;-2.230;2022-10-31T17:25:21;14.60;99.90
37222;DHT22;23119;51.842;-2.230;2022-10-31T17:27:48;14.60;99.90
37222;DHT22;23119;51.842;-2.230;2022-10-31T17:30:20;14.50;99.90
37222;DHT22;23119;51.842;-2.230;2022-10-31T17:32:47;14.50;99.90
37222;DHT22;23119;51.842;-2.230;2022-10-31T17:35:17;14.50;99.90
37222;DHT22;23119;51.842;-2.230;2022-10-31T17:37:53;14.50;99.90
37222;DHT22;23119;51.842;-2.230;2022-10-31T17:40:20;14.50;99.90
37222;DHT22;23119;51.842;-2.230;2022-10-31T17:42:54;14.60;99.90
37222;DHT22;23119;51.842;-2.230;2022-10-31T17:45:22;14.60;99.90
37222;DHT22;23119;51.842;-2.230;2022-10-31T17:47:49;14.50;99.90
37222;DHT22;23119;51.842;-2.230;2022-10-31T17:50:20;14.50;99.90
37222;DHT22;23119;51.842;-2.230;2022-10-31T17:52:53;14.50;99.90
37222;DHT22;23119;51.842;-2.230;2022-10-31T17:55:22;14.50;99.90
37222;DHT22;23119;51.842;-2.230;2022-10-31T17:57:53;14.60;99.90
37222;DHT22;23119;51.842;-2.230;2022-10-31T18:00:19;14.60;99.90
37222;DHT22;23119;51.842;-2.230;2022-10-31T18:02:47;14.50;99.90
37222;DHT22;23119;51.842;-2.230;2022-10-31T18:05:15;14.50;99.90
37222;DHT22;23119;51.842;-2.230;2022-10-31T18:07:48;14.50;99.90
37222;DHT22;23119;51.842;-2.230;2022-10-31T18:10:16;14.50;99.90
37222;DHT22;23119;51.842;-2.230;2022-10-31T18:12:44;14.50;99.90
37222;DHT22;23119;51.842;-2.230;2022-10-31T18:15:10;14.40;99.90